Time;durP1;ratioP1;P1;durP2;ratioP2;P2;SDS_P1;SDS_P2;PMS_P1;PMS_P2;Temp;Humidity;BMP_temperature;BMP_pressure;BME280_temperature;BME280_humidity;BME280_pressure;Samples;Min_cycle;Max_cycle;Signal;HPM_P1;HPM_P2
2022/04/04 00:02:14;;;;;;;;;23.50;19.75;;;;;4.61;55.51;102017.44;5071738;27;45635;-74
2022/04/04 00:04:40;;;;;;;;;21.50;17.00;;;;;4.65;56.93;102033.47;5064358;28;45462;-74
2022/04/04 00:07:06;;;;;;;;;22.00;21.50;;;;;4.39;55.96;101992.41;5071096;28;45862;-75
2022/04/04 00:09:31;;;;;;;;;24.75;22.25;;;;;4.44;57.07;102001.47;5070757;28;45852;-75
2022/04/04 00:11:57;;;;;;;;;20.25;18.75;;;;;4.44;57.23;102011.97;5074538;28;45318;-75
2022/04/04 00:14:23;;;;;;;;;23.25;20.25;;;;;4.53;56.43;102037.84;5063172;28;47154;-75
2022/04/04 00:16:48;;;;;;;;;26.00;25.25;;;;;4.49;55.73;102031.50;5076815;28;45225;-75
2022/04/04 00:19:14;;;;;;;;;24.00;20.00;;;;;4.33;56.73;102001.56;5072254;27;45381;-75
2022/04/04 00:21:44;;;;;;;;;31.75;23.25;;;;;4.46;55.66;102031.31;5069372;28;45235;-75
2022/04/04 00:24:09;;;;;;;;;23.75;20.75;;;;;4.36;57.68;102009.63;5065163;28;45516;-74
2022/04/04 00:26:35;;;;;;;;;25.25;20.75;;;;;4.29;57.00;102005.69;5067319;28;45244;-76
2022/04/04 00:29:00;;;;;;;;;24.00;21.25;;;;;4.24;57.72;102001.84;5063547;28;45323;-75
2022/04/04 00:31:26;;;;;;;;;23.00;21.00;;;;;4.09;54.91;101977.22;5066157;28;45501;-76
2022/04/04 00:33:51;;;;;;;;;20.00;19.75;;;;;4.23;57.29;102005.28;5063141;28;45517;-75
2022/04/04 00:36:17;;;;;;;;;17.75;16.00;;;;;4.28;53.66;102019.56;5064673;28;45330;-75
2022/04/04 00:38:42;;;;;;;;;22.25;18.50;;;;;4.26;56.96;102022.09;5064216;28;45319;-75
2022/04/04 00:41:13;;;;;;;;;19.75;19.50;;;;;4.01;54.45;101975.00;5070666;28;45499;-75
2022/04/04 00:43:39;;;;;;;;;20.25;19.00;;;;;4.14;56.98;102000.28;5068529;27;45330;-75
2022/04/04 00:46:04;;;;;;;;;21.25;19.00;;;;;4.10;57.91;101997.38;5062241;28;46330;-75
2022/04/04 00:48:30;;;;;;;;;23.75;21.75;;;;;4.18;56.97;102012.78;5060433;28;45509;-75
2022/04/04 00:50:56;;;;;;;;;19.75;19.75;;;;;4.14;56.56;102007.22;5070693;28;45507;-74
2022/04/04 00:53:22;;;;;;;;;22.25;22.25;;;;;3.97;57.03;101982.50;5063190;28;45490;-75
2022/04/04 00:55:48;;;;;;;;;21.25;21.25;;;;;4.11;57.00;102007.00;5073646;28;46617;-75
2022/04/04 00:58:14;;;;;;;;;29.75;23.25;;;;;4.05;57.80;102007.50;5066838;28;45226;-75
2022/04/04 01:00:41;;;;;;;;;23.00;20.50;;;;;4.07;58.46;102008.53;5069189;27;45267;-75
2022/04/04 01:03:06;;;;;;;;;21.25;18.50;;;;;3.69;58.21;101946.56;5074205;27;45391;-75
2022/04/04 01:05:32;;;;;;;;;22.50;21.00;;;;;4.03;58.06;102016.94;5069409;28;45445;-75
2022/04/04 01:07:58;;;;;;;;;22.25;20.25;;;;;4.01;57.80;102009.00;5064529;27;45437;-74
2022/04/04 01:10:23;;;;;;;;;23.25;22.00;;;;;3.99;57.71;102009.69;5075145;27;45361;-74
2022/04/04 01:12:51;;;;;;;;;21.50;19.75;;;;;3.96;58.84;102007.75;5067467;27;45448;-75
2022/04/04 01:15:16;;;;;;;;;27.50;22.00;;;;;3.81;58.11;101978.84;5075866;27;45425;-74
2022/04/04 01:17:42;;;;;;;;;20.25;18.75;;;;;3.67;57.37;101965.56;5082771;27;45277;-74
2022/04/04 01:20:08;;;;;;;;;26.00;22.00;;;;;3.59;58.63;101951.97;5071739;27;45253;-76
2022/04/04 01:22:33;;;;;;;;;22.25;19.75;;;;;3.89;58.85;101997.66;5067051;27;45344;-73
2022/04/04 01:24:59;;;;;;;;;19.25;19.25;;;;;3.26;56.99;101887.75;5069851;28;46079;-74
2022/04/04 01:27:24;;;;;;;;;22.00;18.50;;;;;3.86;59.54;101996.53;5067371;27;45239;-74
2022/04/04 01:29:50;;;;;;;;;19.00;18.50;;;;;3.59;58.57;101950.25;5072471;28;45398;-73
2022/04/04 01:32:15;;;;;;;;;19.50;18.75;;;;;3.29;58.68;101903.66;5066534;28;47352;-75
2022/04/04 01:34:41;;;;;;;;;23.25;19.75;;;;;3.79;58.85;101997.81;5067570;27;45394;-74
2022/04/04 01:37:06;;;;;;;;;27.50;24.25;;;;;3.68;58.89;101981.38;5066603;28;45178;-76
2022/04/04 01:39:32;;;;;;;;;25.50;20.50;;;;;3.47;58.42;101946.75;5071200;28;45494;-74
2022/04/04 01:41:57;;;;;;;;;24.00;22.75;;;;;3.63;57.64;101976.63;5062888;27;45318;-74
2022/04/04 01:44:23;;;;;;;;;28.50;23.00;;;;;3.62;58.42;101975.72;5064756;28;46860;-75
2022/04/04 01:46:48;;;;;;;;;31.50;26.50;;;;;3.67;57.97;101983.84;5073988;28;45292;-75
2022/04/04 01:49:13;;;;;;;;;27.25;26.75;;;;;3.63;58.60;101982.75;5073001;28;45821;-73
2022/04/04 01:51:39;;;;;;;;;28.75;26.00;;;;;3.53;58.51;101978.59;5072529;28;46396;-74
2022/04/04 01:54:06;;;;;;;;;22.25;22.25;;;;;3.59;59.17;101978.09;5062133;28;46369;-74
2022/04/04 01:56:32;;;;;;;;;31.00;23.50;;;;;3.57;58.78;101975.38;5070552;28;45346;-74
2022/04/04 01:58:59;;;;;;;;;27.25;24.75;;;;;3.48;59.50;101960.75;5068149;28;45370;-74
2022/04/04 02:01:25;;;;;;;;;26.25;24.50;;;;;3.47;60.34;101957.19;5071705;28;46011;-75
2022/04/04 02:03:56;;;;;;;;;23.00;22.75;;;;;3.54;57.58;101966.41;5071954;28;46096;-75
2022/04/04 02:06:22;;;;;;;;;26.25;21.25;;;;;3.37;58.82;101946.91;5073183;28;45366;-74
2022/04/04 02:08:48;;;;;;;;;18.75;15.25;;;;;3.31;60.17;101939.53;5064268;28;45259;-74
2022/04/04 02:11:16;;;;;;;;;22.50;21.00;;;;;3.24;60.40;101923.31;5079683;27;45225;-74
2022/04/04 02:13:43;;;;;;;;;22.75;18.75;;;;;3.43;58.93;101965.63;5063277;28;45319;-74
2022/04/04 02:16:09;;;;;;;;;25.00;21.75;;;;;3.25;58.99;101931.28;5075776;27;45477;-74
2022/04/04 02:18:35;;;;;;;;;25.00;19.25;;;;;3.38;58.48;101958.25;5075314;28;45414;-74
2022/04/04 02:21:02;;;;;;;;;26.00;22.00;;;;;3.36;59.86;101951.25;5067099;28;46153;-74
2022/04/04 02:23:28;;;;;;;;;22.25;15.50;;;;;3.20;59.46;101929.13;5076192;27;46191;-75
2022/04/04 02:26:00;;;;;;;;;22.75;21.00;;;;;3.18;59.53;101931.59;5071816;28;45663;-75
2022/04/04 02:28:27;;;;;;;;;25.00;17.50;;;;;3.28;59.18;101944.56;5063860;28;45356;-74
2022/04/04 02:30:54;;;;;;;;;21.00;18.50;;;;;2.93;58.38;101884.53;5067777;28;47366;-74
2022/04/04 02:33:20;;;;;;;;;18.00;16.75;;;;;3.13;59.53;101933.88;5066761;28;46693;-74
2022/04/04 02:35:46;;;;;;;;;19.50;15.00;;;;;3.20;59.74;101944.81;5090640;27;46022;-74
2022/04/04 02:38:12;;;;;;;;;21.75;17.75;;;;;3.11;59.15;101926.75;5075824;28;45566;-74
2022/04/04 02:40:38;;;;;;;;;19.25;17.00;;;;;2.87;59.17;101886.69;5069646;28;45375;-75
2022/04/04 02:43:05;;;;;;;;;24.25;17.50;;;;;3.14;59.61;101945.25;5060745;28;47496;-74
2022/04/04 02:45:31;;;;;;;;;22.00;18.75;;;;;3.03;59.88;101931.41;5069758;27;45371;-74
2022/04/04 02:47:57;;;;;;;;;25.50;19.75;;;;;3.08;59.82;101943.13;5066801;28;45296;-74
2022/04/04 02:50:22;;;;;;;;;20.25;17.75;;;;;2.90;59.98;101913.03;5075627;28;45515;-74
2022/04/04 02:52:48;;;;;;;;;25.25;21.00;;;;;2.79;59.93;101893.97;5062930;28;46061;-75
2022/04/04 02:57:58;;;;;;;;;26.75;21.00;;;;;2.71;60.29;101891.59;5069037;28;45407;-75
2022/04/04 03:00:27;;;;;;;;;24.00;21.75;;;;;2.97;60.22;101933.59;5070755;27;45429;-74
2022/04/04 03:02:55;;;;;;;;;22.75;18.50;;;;;2.96;60.23;101936.06;5067761;27;45440;-74
2022/04/04 03:05:21;;;;;;;;;21.25;17.50;;;;;2.93;60.68;101934.13;5069046;28;45451;-75
2022/04/04 03:07:47;;;;;;;;;18.00;18.00;;;;;2.60;60.34;101873.44;5066616;28;45438;-75
2022/04/04 03:10:13;;;;;;;;;22.00;20.00;;;;;2.72;60.87;101906.44;5072390;28;45470;-74
2022/04/04 03:12:49;;;;;;;;;24.75;17.50;;;;;2.77;60.28;101919.03;5066047;28;46730;-75
2022/04/04 03:15:17;;;;;;;;;19.50;14.00;;;;;2.76;60.88;101917.25;5066731;28;46105;-75
2022/04/04 03:17:44;;;;;;;;;18.25;16.75;;;;;2.82;60.44;101927.22;5073678;28;45466;-75
2022/04/04 03:20:12;;;;;;;;;26.00;24.50;;;;;2.80;61.04;101926.19;5068317;28;46549;-75
2022/04/04 03:22:40;;;;;;;;;34.00;31.33;;;;;2.56;60.87;101881.84;5075109;28;47283;-75
2022/04/04 03:25:08;;;;;;;;;35.67;29.00;;;;;2.61;61.23;101885.69;5065586;28;45187;-75
2022/04/04 03:27:34;;;;;;;;;41.00;39.67;;;;;2.60;61.52;101885.56;5059922;28;45303;-75
2022/04/04 03:30:00;;;;;;;;;40.33;36.00;;;;;2.35;61.56;101846.31;5071045;28;45966;-75
2022/04/04 03:32:25;;;;;;;;;48.67;37.33;;;;;2.35;61.63;101846.31;5064433;27;45958;-75
2022/04/04 03:34:51;;;;;;;;;46.33;40.33;;;;;2.62;61.30;101900.56;5063810;28;45382;-75
2022/04/04 03:37:16;;;;;;;;;52.67;43.67;;;;;2.24;61.83;101816.81;5065163;27;45343;-75
2022/04/04 03:39:42;;;;;;;;;66.33;53.00;;;;;2.37;61.52;101836.91;5069273;28;47090;-75
2022/04/04 03:42:08;;;;;;;;;63.00;52.00;;;;;2.71;61.47;101902.03;5064627;28;46196;-75
2022/04/04 03:44:33;;;;;;;;;73.67;58.67;;;;;2.55;60.86;101869.59;5069496;28;45226;-75
2022/04/04 03:46:59;;;;;;;;;75.00;58.33;;;;;2.68;61.68;101895.78;5061741;27;45216;-75
2022/04/04 03:49:24;;;;;;;;;83.67;62.67;;;;;2.68;61.62;101892.28;5070512;28;45450;-75
2022/04/04 03:51:50;;;;;;;;;75.67;59.00;;;;;2.68;61.56;101893.19;5066243;27;45959;-75
2022/04/04 03:54:16;;;;;;;;;74.67;59.00;;;;;2.66;61.77;101889.56;5066452;28;45311;-75
2022/04/04 03:56:41;;;;;;;;;73.00;56.67;;;;;2.56;61.74;101868.78;5073195;28;45291;-75
2022/04/04 03:59:06;;;;;;;;;75.00;56.33;;;;;2.63;61.51;101881.50;5064852;28;45529;-75
2022/04/04 04:01:32;;;;;;;;;65.00;51.67;;;;;2.60;61.44;101876.03;5071903;28;45519;-75
2022/04/04 04:03:57;;;;;;;;;65.67;52.33;;;;;2.56;60.75;101884.44;5064504;28;45397;-75
2022/04/04 04:06:22;;;;;;;;;54.67;42.67;;;;;2.45;61.74;101865.38;5071107;28;45336;-75
2022/04/04 04:08:48;;;;;;;;;52.67;43.33;;;;;2.51;61.92;101877.97;5065070;28;45595;-75
2022/04/04 04:11:16;;;;;;;;;44.67;38.33;;;;;2.32;61.73;101847.00;5069786;28;45586;-75
2022/04/04 04:13:43;;;;;;;;;46.67;34.33;;;;;2.26;62.15;101819.56;5064091;28;45290;-75
2022/04/04 04:16:09;;;;;;;;;41.00;32.00;;;;;2.49;62.23;101861.28;5068702;28;45453;-75
2022/04/04 04:18:38;;;;;;;;;36.33;29.67;;;;;2.25;61.97;101823.88;5061329;28;45297;-75
2022/04/04 04:21:04;;;;;;;;;38.67;32.00;;;;;2.23;61.90;101823.75;5071326;28;46509;-75
2022/04/04 04:23:30;;;;;;;;;38.00;33.00;;;;;2.43;62.04;101863.44;5061185;28;45374;-75
2022/04/04 04:25:55;;;;;;;;;31.00;29.67;;;;;2.18;62.29;101817.28;5075844;28;45458;-75
2022/04/04 04:28:21;;;;;;;;;33.00;30.67;;;;;2.42;62.17;101846.91;5061358;28;45336;-75
2022/04/04 04:30:47;;;;;;;;;40.00;33.33;;;;;2.36;62.21;101840.34;5067245;28;45358;-75
2022/04/04 04:33:12;;;;;;;;;31.67;29.00;;;;;2.21;62.42;101825.38;5061397;28;45505;-75
2022/04/04 04:35:38;;;;;;;;;25.67;25.67;;;;;2.39;62.03;101853.59;5065526;28;45255;-75
2022/04/04 04:38:04;;;;;;;;;30.00;24.67;;;;;2.17;61.73;101809.34;5059950;28;45468;-75
2022/04/04 04:40:29;;;;;;;;;32.00;27.00;;;;;2.14;61.34;101817.88;5068500;27;46242;-75
2022/04/04 04:42:56;;;;;;;;;23.75;22.25;;;;;2.28;62.41;101851.91;5058938;28;45520;-75
2022/04/04 04:45:22;;;;;;;;;27.25;22.00;;;;;2.27;61.94;101844.84;5074572;28;45358;-75
2022/04/04 04:47:48;;;;;;;;;24.33;23.67;;;;;1.96;61.62;101799.16;5062436;28;45419;-75
2022/04/04 04:50:16;;;;;;;;;18.50;18.00;;;;;2.27;62.45;101842.25;5076085;28;45395;-75
2022/04/04 04:52:43;;;;;;;;;33.67;26.00;;;;;2.06;61.76;101808.56;5077319;28;45733;-75
2022/04/04 04:55:09;;;;;;;;;27.00;24.00;;;;;2.26;62.12;101837.81;5073711;28;45263;-75
2022/04/04 04:57:35;;;;;;;;;24.25;17.50;;;;;2.24;62.11;101840.31;5071036;28;45268;-75
2022/04/04 05:00:04;;;;;;;;;22.25;16.25;;;;;1.92;61.57;101789.28;5069270;28;46025;-75
2022/04/04 05:02:30;;;;;;;;;21.50;19.50;;;;;2.23;60.55;101843.72;5072093;27;45287;-76
2022/04/04 05:04:55;;;;;;;;;17.50;16.25;;;;;2.21;60.41;101843.63;5068252;28;45336;-75
2022/04/04 05:07:21;;;;;;;;;17.75;16.25;;;;;2.00;62.07;101800.28;5072659;27;45356;-76
2022/04/04 05:09:46;;;;;;;;;20.00;20.00;;;;;2.06;60.82;101813.78;5072168;28;47196;-75
2022/04/04 05:12:11;;;;;;;;;17.50;17.50;;;;;2.08;63.56;101822.63;5072488;28;44707;-75
2022/04/04 05:14:39;;;;;;;;;16.75;16.75;;;;;2.20;61.76;101839.19;5069089;28;45516;-76
2022/04/04 05:17:05;;;;;;;;;20.00;18.50;;;;;2.22;61.89;101837.59;5069798;28;47621;-76
2022/04/04 05:19:31;;;;;;;;;28.25;19.50;;;;;2.16;62.00;101826.72;5068536;28;45925;-75
2022/04/04 05:21:57;;;;;;;;;24.75;17.25;;;;;1.98;62.65;101794.94;5072373;28;45640;-75
2022/04/04 05:24:22;;;;;;;;;18.25;17.50;;;;;2.20;62.36;101839.19;5069760;28;46375;-75
2022/04/04 05:26:48;;;;;;;;;25.00;18.25;;;;;1.94;62.34;101787.69;5068892;28;45367;-75
2022/04/04 05:29:17;;;;;;;;;23.25;18.75;;;;;1.95;62.05;101788.59;5076277;28;48240;-75
2022/04/04 05:31:43;;;;;;;;;21.00;18.50;;;;;2.05;63.12;101811.06;5067943;28;45472;-75
2022/04/04 05:34:08;;;;;;;;;21.75;18.00;;;;;2.01;62.58;101800.38;5064183;28;45389;-75
2022/04/04 05:36:33;;;;;;;;;23.25;19.25;;;;;2.05;62.01;101814.56;5066347;28;45538;-75
2022/04/04 05:38:59;;;;;;;;;25.00;19.00;;;;;2.20;61.62;101835.66;5069107;28;46585;-75
2022/04/04 05:41:27;;;;;;;;;20.33;20.33;;;;;2.15;62.25;101824.88;5068678;27;45272;-75
2022/04/04 05:43:53;;;;;;;;;20.67;20.33;;;;;2.16;62.56;101824.09;5064730;28;45423;-76
2022/04/04 05:46:19;;;;;;;;;24.75;19.50;;;;;2.27;61.66;101837.03;5068844;27;45233;-75
2022/04/04 05:48:45;;;;;;;;;16.00;16.00;;;;;1.81;61.01;101755.38;5066238;28;45343;-74
2022/04/04 05:51:10;;;;;;;;;23.00;19.75;;;;;2.28;62.10;101834.53;5062533;28;45433;-75
2022/04/04 05:53:36;;;;;;;;;22.67;21.00;;;;;2.15;61.75;101806.63;5077350;28;45429;-75
2022/04/04 05:56:02;;;;;;;;;28.25;21.25;;;;;2.31;61.29;101829.53;5083008;27;46213;-75
2022/04/04 05:58:28;;;;;;;;;26.67;20.67;;;;;2.26;62.58;101819.56;5067450;28;45313;-75
2022/04/04 06:00:54;;;;;;;;;21.25;18.00;;;;;2.27;62.28;101817.09;5072919;27;45270;-75
2022/04/04 06:03:20;;;;;;;;;23.00;19.33;;;;;2.36;61.59;101828.19;5065873;27;45364;-75
2022/04/04 06:05:49;;;;;;;;;21.75;16.25;;;;;2.36;61.55;101825.56;5071452;27;45418;-74
2022/04/04 06:08:16;;;;;;;;;20.50;17.50;;;;;2.23;61.18;101800.28;5066222;27;46184;-76
2022/04/04 06:10:42;;;;;;;;;22.33;19.67;;;;;2.19;60.88;101784.31;5066912;28;45400;-76
2022/04/04 06:13:08;;;;;;;;;21.25;18.00;;;;;2.45;61.04;101826.25;5062620;28;45304;-75
2022/04/04 06:15:33;;;;;;;;;20.00;16.00;;;;;2.28;61.26;101795.41;5072046;27;45247;-76
2022/04/04 06:18:00;;;;;;;;;21.75;17.00;;;;;2.13;60.26;101763.91;5060788;28;45485;-76
2022/04/04 06:20:25;;;;;;;;;21.75;19.25;;;;;2.55;58.48;101826.91;5066210;27;45488;-79
2022/04/04 06:22:51;;;;;;;;;16.75;16.50;;;;;2.28;60.47;101769.31;5061325;28;45425;-75
2022/04/04 06:25:16;;;;;;;;;17.00;16.75;;;;;2.59;61.27;101823.75;5069019;28;45322;-76
2022/04/04 06:27:42;;;;;;;;;17.50;17.00;;;;;2.49;61.23;101793.44;5063992;27;45369;-78
2022/04/04 06:30:08;;;;;;;;;18.00;16.25;;;;;2.43;61.19;101777.34;5067349;28;45439;-77
2022/04/04 06:32:33;;;;;;;;;16.25;15.75;;;;;2.06;60.65;101706.84;5065618;28;45431;-75
2022/04/04 06:34:59;;;;;;;;;16.75;14.75;;;;;2.41;61.03;101755.47;5065376;27;45424;-74
2022/04/04 06:37:24;;;;;;;;;16.00;14.00;;;;;2.62;60.82;101777.88;5063891;27;45386;-76
2022/04/04 06:39:50;;;;;;;;;17.75;14.00;;;;;2.91;61.12;101802.53;5072989;28;45403;-76
2022/04/04 06:42:15;;;;;;;;;16.75;13.75;;;;;2.99;57.87;101784.81;5066804;27;45596;-77
2022/04/04 06:44:42;;;;;;;;;20.50;18.25;;;;;3.30;59.25;101816.59;5074200;27;45241;-76
2022/04/04 06:47:08;;;;;;;;;19.00;14.75;;;;;3.47;59.12;101816.06;5070392;27;45262;-76
2022/04/04 06:49:33;;;;;;;;;17.00;15.75;;;;;3.42;57.95;101773.06;5076972;27;45650;-76
2022/04/04 06:51:59;;;;;;;;;17.75;15.25;;;;;3.65;57.96;101777.22;5064693;27;45463;-76
2022/04/04 06:54:24;;;;;;;;;14.50;13.50;;;;;4.01;57.79;101804.94;5065295;28;45442;-75
2022/04/04 06:56:52;;;;;;;;;17.50;15.25;;;;;4.20;57.13;101798.28;5072994;28;45312;-75
2022/04/04 06:59:17;;;;;;;;;15.25;15.00;;;;;4.20;56.80;101767.84;5065958;28;45216;-76
2022/04/04 07:01:43;;;;;;;;;15.25;14.00;;;;;4.47;56.98;101776.53;5076333;28;45419;-76
2022/04/04 07:04:10;;;;;;;;;17.00;11.50;;;;;4.72;56.68;101789.50;5074199;27;45457;-77
2022/04/04 07:06:35;;;;;;;;;16.75;14.50;;;;;4.93;56.29;101787.34;5071832;28;47068;-76
2022/04/04 07:09:01;;;;;;;;;12.25;10.25;;;;;4.90;55.80;101744.31;5064297;28;45436;-75
2022/04/04 07:11:27;;;;;;;;;12.00;12.00;;;;;5.09;55.29;101757.75;5071247;28;45402;-76
2022/04/04 07:13:52;;;;;;;;;3.00;1.50;;;;;5.15;54.73;101747.66;5062808;28;47289;-76
2022/04/04 07:16:18;;;;;;;;;12.00;12.00;;;;;5.48;54.08;101789.84;5064813;27;45391;-77
2022/04/04 07:18:44;;;;;;;;;15.50;15.50;;;;;5.41;53.50;101743.09;5066585;28;45468;-78
2022/04/04 07:21:10;;;;;;;;;11.00;10.50;;;;;5.61;53.62;101739.03;5062110;28;45433;-77
2022/04/04 07:23:36;;;;;;;;;15.50;13.00;;;;;5.94;52.56;101757.63;5070139;28;45865;-78
2022/04/04 07:26:01;;;;;;;;;11.50;10.75;;;;;6.22;52.91;101766.28;5063068;27;45701;-76
2022/04/04 07:28:27;;;;;;;;;17.25;14.00;;;;;6.23;52.22;101722.53;5063294;28;45349;-79
2022/04/04 07:30:53;;;;;;;;;12.50;10.00;;;;;6.66;51.41;101762.59;5062464;28;45323;-77
2022/04/04 07:33:19;;;;;;;;;9.50;9.25;;;;;6.77;52.24;101746.53;5070311;28;45474;-77
2022/04/04 07:35:45;;;;;;;;;6.75;5.75;;;;;6.97;50.78;101751.13;5068144;28;45948;-77
2022/04/04 07:38:12;;;;;;;;;14.50;11.50;;;;;6.99;49.44;101730.22;5061141;28;45958;-77
2022/04/04 07:40:37;;;;;;;;;8.75;7.50;;;;;7.27;49.92;101756.25;5071052;28;45764;-78
2022/04/04 07:43:03;;;;;;;;;8.00;8.00;;;;;7.40;50.19;101745.56;5060521;28;45303;-76
2022/04/04 07:45:30;;;;;;;;;13.25;8.75;;;;;7.50;49.27;101745.19;5069789;27;45564;-77
2022/04/04 07:47:55;;;;;;;;;8.25;6.75;;;;;7.31;49.95;101680.22;5059893;28;44943;-77
2022/04/04 07:50:21;;;;;;;;;7.75;7.75;;;;;7.67;48.68;101729.38;5072295;27;45554;-76
2022/04/04 07:52:47;;;;;;;;;8.25;6.00;;;;;7.78;45.41;101722.91;5061380;28;45237;-77
2022/04/04 07:55:13;;;;;;;;;6.50;6.50;;;;;7.85;46.26;101710.16;5068178;28;45247;-76
2022/04/04 07:57:39;;;;;;;;;8.00;5.75;;;;;8.02;44.12;101710.09;5077607;27;45516;-76
2022/04/04 08:00:07;;;;;;;;;6.00;6.00;;;;;8.29;44.84;101729.88;5066330;28;45347;-76
2022/04/04 08:02:32;;;;;;;;;4.50;4.50;;;;;8.42;45.34;101722.59;5068885;27;45354;-77
2022/04/04 08:04:58;;;;;;;;;4.00;4.00;;;;;8.19;46.13;101650.34;5062196;28;45397;-76
2022/04/04 08:07:23;;;;;;;;;5.50;5.00;;;;;8.64;44.64;101703.44;5086580;27;45289;-77
2022/04/04 08:09:48;;;;;;;;;6.00;3.00;;;;;8.90;43.75;101715.16;5065712;28;45352;-78
2022/04/04 08:12:14;;;;;;;;;7.50;5.00;;;;;8.94;42.81;101682.84;5074636;28;47088;-77
2022/04/04 08:14:39;;;;;;;;;7.25;5.00;;;;;9.06;43.10;101672.84;5065576;28;46431;-76
2022/04/04 08:17:06;;;;;;;;;7.00;5.00;;;;;9.36;43.13;101696.13;5067991;28;45374;-77
2022/04/04 08:19:32;;;;;;;;;4.25;4.25;;;;;9.58;43.86;101708.53;5063792;28;45299;-76
2022/04/04 08:21:58;;;;;;;;;4.75;3.25;;;;;9.63;40.02;101709.59;5075006;28;47048;-76
2022/04/04 08:24:23;;;;;;;;;4.75;4.75;;;;;9.68;41.79;101696.59;5071113;27;45360;-77
2022/04/04 08:26:49;;;;;;;;;1.50;1.50;;;;;9.67;41.54;101666.66;5070296;28;45276;-77
2022/04/04 08:29:15;;;;;;;;;5.75;5.25;;;;;9.85;41.50;101671.81;5062637;28;45465;-76
2022/04/04 08:31:40;;;;;;;;;6.00;4.00;;;;;10.02;40.67;101677.78;5073286;28;45359;-75
2022/04/04 08:34:06;;;;;;;;;3.50;2.25;;;;;10.14;39.58;101672.06;5069765;27;46137;-75
2022/04/04 08:36:31;;;;;;;;;5.00;3.75;;;;;10.22;38.35;101668.00;5061948;28;45398;-77
2022/04/04 08:38:57;;;;;;;;;3.50;3.50;;;;;10.50;40.62;101681.50;5067733;28;45519;-76
2022/04/04 08:41:24;;;;;;;;;3.75;3.75;;;;;10.57;39.24;101673.81;5081436;27;47122;-77
2022/04/04 08:43:50;;;;;;;;;6.00;5.00;;;;;10.38;38.05;101599.09;5060899;28;45249;-77
2022/04/04 08:46:16;;;;;;;;;5.00;3.00;;;;;10.98;39.39;101672.72;5066857;27;45302;-76
2022/04/04 08:48:42;;;;;;;;;0.00;0.00;;;;;11.00;38.55;101648.94;5063435;28;45542;-76
2022/04/04 08:51:08;;;;;;;;;3.25;3.25;;;;;11.32;37.49;101674.81;5067700;28;45627;-73
2022/04/04 08:53:36;;;;;;;;;4.25;4.00;;;;;11.32;37.12;101668.63;5063704;28;46188;-74
2022/04/04 08:56:03;;;;;;;;;4.50;3.00;;;;;11.41;37.11;101661.00;5069128;27;45370;-76
2022/04/04 08:58:29;;;;;;;;;3.25;2.75;;;;;11.37;34.91;101624.69;5065432;28;45296;-74
2022/04/04 09:00:54;;;;;;;;;3.00;3.00;;;;;11.38;37.43;101605.31;5069229;27;45305;-74
2022/04/04 09:03:22;;;;;;;;;5.00;4.00;;;;;11.45;36.18;101614.34;5063665;27;45231;-73
2022/04/04 09:05:51;;;;;;;;;3.75;3.00;;;;;11.64;37.20;101652.09;5065018;27;45343;-74
2022/04/04 09:08:18;;;;;;;;;4.75;2.75;;;;;11.62;37.17;101632.63;5066602;28;45332;-75
2022/04/04 09:10:44;;;;;;;;;2.00;2.00;;;;;11.70;36.39;101618.72;5072264;28;45789;-80
2022/04/04 09:13:18;;;;;;;;;3.00;3.00;;;;;11.68;37.09;101597.50;5072720;27;46692;-76
2022/04/04 09:15:53;;;;;;;;;2.75;2.00;;;;;11.97;36.77;101640.84;5069946;28;45247;-74
2022/04/04 09:18:25;;;;;;;;;3.00;3.00;;;;;11.97;34.52;101640.84;5066591;27;45768;-75
2022/04/04 09:20:51;;;;;;;;;3.75;2.00;;;;;11.86;32.52;101642.25;5067487;28;45960;-73
2022/04/04 09:23:17;;;;;;;;;2.50;1.25;;;;;11.91;35.02;101634.47;5059818;28;45387;-73
2022/04/04 09:25:43;;;;;;;;;2.00;2.00;;;;;11.91;35.57;101613.28;5065737;28;45786;-72
2022/04/04 09:28:19;;;;;;;;;3.50;1.50;;;;;12.17;33.99;101636.19;5058974;28;45207;-73
2022/04/04 09:31:06;;;;;;;;;4.00;2.00;;;;;12.39;33.25;101623.59;5063235;27;46089;-72
2022/04/04 09:33:37;;;;;;;;;2.00;2.00;;;;;12.30;33.41;101581.78;5072372;28;45321;-73
2022/04/04 09:36:06;;;;;;;;;1.75;1.00;;;;;12.48;33.63;101598.22;5075345;28;45370;-72
2022/04/04 09:38:35;;;;;;;;;2.50;1.25;;;;;12.45;32.82;101584.88;5065919;28;45300;-74
2022/04/04 09:41:05;;;;;;;;;1.25;1.25;;;;;12.78;32.69;101618.56;5069788;28;45446;-73
2022/04/04 09:43:54;;;;;;;;;3.00;3.00;;;;;12.88;32.56;101611.72;5063155;28;45355;-73
2022/04/04 09:46:21;;;;;;;;;1.50;1.50;;;;;12.98;32.26;101613.78;5064154;28;45801;-74
2022/04/04 09:49:09;;;;;;;;;2.00;2.00;;;;;13.14;32.37;101609.81;5064890;28;46483;-74
2022/04/04 09:51:54;;;;;;;;;2.50;2.00;;;;;13.27;32.50;101593.34;5063110;28;45300;-74
2022/04/04 09:54:26;;;;;;;;;2.25;2.00;;;;;13.29;30.94;101561.56;5066327;28;46184;-73
2022/04/04 09:57:16;;;;;;;;;2.00;1.00;;;;;13.63;31.65;101595.16;5072814;28;45489;-74
2022/04/04 09:59:42;;;;;;;;;1.25;1.25;;;;;13.68;30.20;101577.56;5072652;28;45340;-74
2022/04/04 10:02:08;;;;;;;;;3.00;1.50;;;;;13.88;30.54;101594.88;5075762;28;47589;-74
2022/04/04 10:04:35;;;;;;;;;2.00;2.00;;;;;13.81;29.82;101574.34;5067601;28;45919;-76
2022/04/04 10:07:06;;;;;;;;;1.50;1.00;;;;;14.02;28.05;101581.91;5079271;28;45743;-75
2022/04/04 10:09:32;;;;;;;;;1.25;1.25;;;;;14.09;29.15;101569.69;5072393;27;45354;-75
2022/04/04 10:11:58;;;;;;;;;2.00;2.00;;;;;14.21;28.78;101580.56;5069572;28;46031;-78
2022/04/04 10:14:24;;;;;;;;;2.00;2.00;;;;;14.06;26.97;101530.63;5065647;28;45457;-75
2022/04/04 10:16:53;;;;;;;;;1.00;1.00;;;;;14.49;28.66;101571.41;5075543;28;45729;-74
2022/04/04 10:19:19;;;;;;;;;1.50;1.50;;;;;14.53;29.13;101564.41;5070077;28;45382;-75
2022/04/04 10:21:45;;;;;;;;;3.50;2.00;;;;;14.33;27.70;101505.47;5061841;28;45791;-77
2022/04/04 10:24:12;;;;;;;;;4.00;2.50;;;;;14.86;27.86;101555.31;5063932;28;46192;-75
2022/04/04 10:26:39;;;;;;;;;2.00;2.00;;;;;15.08;27.79;101564.59;5062014;28;45354;-77
2022/04/04 10:29:07;;;;;;;;;2.75;2.50;;;;;15.14;27.94;101549.63;5065742;28;45383;-77
2022/04/04 10:31:45;;;;;;;;;1.75;1.75;;;;;15.15;27.83;101547.84;5059656;28;45478;-75
2022/04/04 10:34:13;;;;;;;;;3.00;3.00;;;;;15.06;28.01;101529.06;5068534;28;46515;-75
2022/04/04 10:37:06;;;;;;;;;1.33;1.33;;;;;15.04;28.19;101534.38;5065556;28;45447;-76
2022/04/04 10:39:45;;;;;;;;;2.00;2.00;;;;;14.95;27.92;101531.50;5084415;27;45393;-75
2022/04/04 10:42:23;;;;;;;;;3.00;3.00;;;;;14.73;27.73;101483.22;5061935;27;46414;-78
2022/04/04 10:44:52;;;;;;;;;2.00;2.00;;;;;15.01;27.87;101499.66;5075130;28;47989;-76
2022/04/04 10:47:21;;;;;;;;;2.33;2.33;;;;;15.33;28.58;101525.97;5061242;27;45284;-78
2022/04/04 10:49:47;;;;;;;;;1.00;1.00;;;;;14.85;28.14;101439.06;5064284;28;45493;-76
2022/04/04 10:52:12;;;;;;;;;0.00;0.00;;;;;14.91;28.37;101461.34;5061719;28;45501;-78
2022/04/04 10:54:38;;;;;;;;;3.00;3.00;;;;;14.69;27.77;101449.44;5062189;28;45462;-78
2022/04/04 10:57:16;;;;;;;;;4.00;3.00;;;;;14.78;27.95;101472.66;5067523;28;45410;-77
2022/04/04 10:59:45;;;;;;;;;2.75;2.75;;;;;14.81;27.25;101485.13;5064921;28;45487;-78
2022/04/04 11:02:14;;;;;;;;;3.00;3.00;;;;;14.67;27.33;101469.78;5061905;28;45329;-75
2022/04/04 11:07:38;;;;;;;;;3.00;3.00;;;;;14.72;26.54;101496.50;5064837;28;45416;-76
2022/04/04 11:07:39;;;;;;;;;4.00;4.00;;;;;14.58;27.55;101479.38;5059226;28;45407;-75
2022/04/04 11:10:06;;;;;;;;;5.50;4.00;;;;;14.49;27.41;101502.25;5063361;28;45313;-78
2022/04/04 11:12:54;;;;;;;;;3.00;3.00;;;;;14.44;27.87;101487.06;5075992;28;46153;-75
2022/04/04 11:15:49;;;;;;;;;3.00;3.00;;;;;13.95;27.44;101439.13;5082340;27;48499;-75
2022/04/04 11:18:15;;;;;;;;;6.50;6.00;;;;;13.99;28.17;101456.03;5059195;28;45409;-75
2022/04/04 11:20:54;;;;;;;;;6.50;4.00;;;;;14.06;28.27;101474.78;5061139;28;45522;-77
2022/04/04 11:23:26;;;;;;;;;4.75;3.50;;;;;14.05;27.99;101453.47;5071993;28;47353;-74